(°C)
11°
13°
(°C)
11°
С
С
С
С
ССЗ
С
С
(km/h)
4-7
4-4
2-5
2-8
5-8
7-8
7-9
(mm)
0
0
0
0
0
0
0
(%)
0
0
0
0
0
0
0

Издигане на слънцето

/ -2.1°
sun-icon
UV 4
06:12
20:29
Първа четвърт на луната (93°)
11:27
03:54

METAR за Bordenau (ETNW)

Час Условия Температура/
Точка на оросяване
Вятър Видимост Времето Облаци Налягане Промяна Raw
4°C / 4°C 350º 1kt 900m - 1017 - ETNW 200320Z AUTO 35001KT 0900 // ////// 04/04 Q1017 ///
4°C / 4°C 310º 3kt 1100m - 1017 - ETNW 200220Z AUTO 31003KT 1100 // ////// 04/04 Q1017 ///
5°C / 5°C 300º 3kt 4200m - 1018 - ETNW 200120Z AUTO 30003KT 4200 // ////// 05/05 Q1018 ///
6°C / 6°C 310º 3kt 3400m - 1018 - ETNW 200020Z AUTO 31003KT 3400 // ////// 06/06 Q1018 ///
7°C / 7°C 290º 3kt 5000m - 1018 - ETNW 192320Z AUTO 29003KT 5000 // ////// 07/07 Q1018 ///
7°C / 7°C 270º 3kt 6000m - 1018 - ETNW 192220Z AUTO 27003KT 6000 // ////// 07/07 Q1018 ///
8°C / 7°C 230º 2kt 6000m - 1019 - ETNW 192120Z AUTO 23002KT 6000 // ////// 08/07 Q1019 ///
9°C / 8°C 260º 2kt 6000m - 1019 - ETNW 192020Z AUTO 26002KT 6000 // ////// 09/08 Q1019 ///
10°C / 7°C 290º 2kt 7000m - 1019 - ETNW 191920Z AUTO 29002KT 7000 // ////// 10/07 Q1019 ///
11°C / 7°C 320º 2kt 7000m - 1019 - ETNW 191820Z AUTO 32002KT 7000 // ////// 11/07 Q1019 ///
13°C / 7°C 300º 2kt 8000m - 1019 - ETNW 191720Z AUTO 30002KT 8000 // ////// 13/07 Q1019 ///
13°C / 7°C 60º 1kt 7000m - 1019 - ETNW 191620Z AUTO 06001KT 7000 // ////// 13/07 Q1019 ///
14°C / 7°C 320º 1kt 8000m - 1020 - ETNW 191520Z AUTO 32001KT 8000 // ////// 14/07 Q1020 ///
VFR 13°C / 6°C 70º 6kt >10km - Few Clouds 2000ft 1020 - ETNW 191420Z 07006KT 9999 FEW020 SCT050 BKN070 13/06 Q1020 BLU BLU
VFR 13°C / 7°C 70º 6kt >10km - Few Clouds 2000ft 1020 - ETNW 191320Z 07006KT 9999 FEW020 BKN070 13/07 Q1020 BLU BLU
VFR 12°C / 7°C 110º 5kt >10km - Scattered Clouds 800ft 1021 - ETNW 191220Z 11005KT 9999 SCT008 BKN110 12/07 Q1021 BLU BLU
IFR 10°C / 7°C 80º 4kt >10km - Broken Clouds 800ft 1021 Becoming: blowing . ETNW 191120Z 08004KT 9999 BKN008 BKN012 10/07 Q1021 GRN GRN BECMG BLU
IFR 9°C / 7°C 50º 6kt >10km - Broken Clouds 800ft 1021 Becoming: blowing . ETNW 191020Z 05006KT 9999 BKN008 09/07 Q1021 GRN GRN BECMG BLU
IFR 9°C / 7°C 70º 7kt >10km - Broken Clouds 700ft 1021 Temporary: YLO ETNW 190945Z 07007KT 9999 BKN007 09/07 Q1021 GRN GRN TEMPO YLO
IFR 8°C / 7°C 60º 6kt >10km - Broken Clouds 600ft 1021 Temporary: YLO ETNW 190920Z 06006KT 9999 BKN006 08/07 Q1021 YLO GRN TEMPO YLO
IFR 8°C / 7°C 80º 6kt >10km - Broken Clouds 800ft 1021 Becoming: WHT ETNW 190820Z 08006KT 9999 BKN008 08/07 Q1021 GRN GRN BECMG WHT
IFR 8°C / 7°C 80º 6kt 9000m - Broken Clouds 700ft 1021 Becoming: WHT ETNW 190720Z 08006KT 9000 BKN007 08/07 Q1021 GRN GRN BECMG WHT
IFR 8°C / 7°C 90º 6kt 8000m - Broken Clouds 700ft 1021 Becoming: WHT ETNW 190640Z 09006KT 8000 BKN007 08/07 Q1021 GRN GRN BECMG WHT
MVFR 8°C / 7°C 80º 6kt 6000m - Few Clouds 600ft 1021 Becoming: WHT ETNW 190620Z 08006KT 6000 FEW006 SCT008 BKN010 08/07 Q1021 GRN GRN BECMG WHT

4°C / 4°C

[Още]
Вятър 350º 1kt
Видимост 900m
Времето -
Облаци
Налягане 1017
Промяна -
Raw ETNW 200320Z AUTO 35001KT 0900 // ////// 04/04 Q1017 ///

4°C / 4°C

[Още]
Вятър 310º 3kt
Видимост 1100m
Времето -
Облаци
Налягане 1017
Промяна -
Raw ETNW 200220Z AUTO 31003KT 1100 // ////// 04/04 Q1017 ///

5°C / 5°C

[Още]
Вятър 300º 3kt
Видимост 4200m
Времето -
Облаци
Налягане 1018
Промяна -
Raw ETNW 200120Z AUTO 30003KT 4200 // ////// 05/05 Q1018 ///

6°C / 6°C

[Още]
Вятър 310º 3kt
Видимост 3400m
Времето -
Облаци
Налягане 1018
Промяна -
Raw ETNW 200020Z AUTO 31003KT 3400 // ////// 06/06 Q1018 ///

7°C / 7°C

[Още]
Вятър 290º 3kt
Видимост 5000m
Времето -
Облаци
Налягане 1018
Промяна -
Raw ETNW 192320Z AUTO 29003KT 5000 // ////// 07/07 Q1018 ///

7°C / 7°C

[Още]
Вятър 270º 3kt
Видимост 6000m
Времето -
Облаци
Налягане 1018
Промяна -
Raw ETNW 192220Z AUTO 27003KT 6000 // ////// 07/07 Q1018 ///

8°C / 7°C

[Още]
Вятър 230º 2kt
Видимост 6000m
Времето -
Облаци
Налягане 1019
Промяна -
Raw ETNW 192120Z AUTO 23002KT 6000 // ////// 08/07 Q1019 ///

9°C / 8°C

[Още]
Вятър 260º 2kt
Видимост 6000m
Времето -
Облаци
Налягане 1019
Промяна -
Raw ETNW 192020Z AUTO 26002KT 6000 // ////// 09/08 Q1019 ///

10°C / 7°C

[Още]
Вятър 290º 2kt
Видимост 7000m
Времето -
Облаци
Налягане 1019
Промяна -
Raw ETNW 191920Z AUTO 29002KT 7000 // ////// 10/07 Q1019 ///

11°C / 7°C

[Още]
Вятър 320º 2kt
Видимост 7000m
Времето -
Облаци
Налягане 1019
Промяна -
Raw ETNW 191820Z AUTO 32002KT 7000 // ////// 11/07 Q1019 ///

13°C / 7°C

[Още]
Вятър 300º 2kt
Видимост 8000m
Времето -
Облаци
Налягане 1019
Промяна -
Raw ETNW 191720Z AUTO 30002KT 8000 // ////// 13/07 Q1019 ///

13°C / 7°C

[Още]
Вятър 60º 1kt
Видимост 7000m
Времето -
Облаци
Налягане 1019
Промяна -
Raw ETNW 191620Z AUTO 06001KT 7000 // ////// 13/07 Q1019 ///

14°C / 7°C

[Още]
Вятър 320º 1kt
Видимост 8000m
Времето -
Облаци
Налягане 1020
Промяна -
Raw ETNW 191520Z AUTO 32001KT 8000 // ////// 14/07 Q1020 ///

VFR

13°C / 6°C

[Още]
Вятър 70º 6kt
Видимост >10km
Времето -
Облаци Few Clouds 2000ft
Налягане 1020
Промяна -
Raw ETNW 191420Z 07006KT 9999 FEW020 SCT050 BKN070 13/06 Q1020 BLU BLU

VFR

13°C / 7°C

[Още]
Вятър 70º 6kt
Видимост >10km
Времето -
Облаци Few Clouds 2000ft
Налягане 1020
Промяна -
Raw ETNW 191320Z 07006KT 9999 FEW020 BKN070 13/07 Q1020 BLU BLU

VFR

12°C / 7°C

[Още]
Вятър 110º 5kt
Видимост >10km
Времето -
Облаци Scattered Clouds 800ft
Налягане 1021
Промяна -
Raw ETNW 191220Z 11005KT 9999 SCT008 BKN110 12/07 Q1021 BLU BLU

IFR

10°C / 7°C

[Още]
Вятър 80º 4kt
Видимост >10km
Времето -
Облаци Broken Clouds 800ft
Налягане 1021
Промяна Becoming: blowing .
Raw ETNW 191120Z 08004KT 9999 BKN008 BKN012 10/07 Q1021 GRN GRN BECMG BLU

IFR

9°C / 7°C

[Още]
Вятър 50º 6kt
Видимост >10km
Времето -
Облаци Broken Clouds 800ft
Налягане 1021
Промяна Becoming: blowing .
Raw ETNW 191020Z 05006KT 9999 BKN008 09/07 Q1021 GRN GRN BECMG BLU

IFR

9°C / 7°C

[Още]
Вятър 70º 7kt
Видимост >10km
Времето -
Облаци Broken Clouds 700ft
Налягане 1021
Промяна Temporary: YLO
Raw ETNW 190945Z 07007KT 9999 BKN007 09/07 Q1021 GRN GRN TEMPO YLO

IFR

8°C / 7°C

[Още]
Вятър 60º 6kt
Видимост >10km
Времето -
Облаци Broken Clouds 600ft
Налягане 1021
Промяна Temporary: YLO
Raw ETNW 190920Z 06006KT 9999 BKN006 08/07 Q1021 YLO GRN TEMPO YLO

IFR

8°C / 7°C

[Още]
Вятър 80º 6kt
Видимост >10km
Времето -
Облаци Broken Clouds 800ft
Налягане 1021
Промяна Becoming: WHT
Raw ETNW 190820Z 08006KT 9999 BKN008 08/07 Q1021 GRN GRN BECMG WHT

IFR

8°C / 7°C

[Още]
Вятър 80º 6kt
Видимост 9000m
Времето -
Облаци Broken Clouds 700ft
Налягане 1021
Промяна Becoming: WHT
Raw ETNW 190720Z 08006KT 9000 BKN007 08/07 Q1021 GRN GRN BECMG WHT

IFR

8°C / 7°C

[Още]
Вятър 90º 6kt
Видимост 8000m
Времето -
Облаци Broken Clouds 700ft
Налягане 1021
Промяна Becoming: WHT
Raw ETNW 190640Z 09006KT 8000 BKN007 08/07 Q1021 GRN GRN BECMG WHT

MVFR

8°C / 7°C

[Още]
Вятър 80º 6kt
Видимост 6000m
Времето -
Облаци Few Clouds 600ft
Налягане 1021
Промяна Becoming: WHT
Raw ETNW 190620Z 08006KT 6000 FEW006 SCT008 BKN010 08/07 Q1021 GRN GRN BECMG WHT

TAF за Bordenau (ETNW)

From till


From till Wind 70º 7kt. Visibility 10km or more. Broken Clouds 700ft.
Becoming from till Wind 90º 8kt. Visibility 10km or more. Broken Clouds 4000ft.
Becoming from till Wind 40º 3kt. Visibility 10km or more. Scattered Clouds 5000ft.
Becoming from till Wind variable 3kt. Visibility 5000m. Mist . Scattered Clouds 500ft. Scattered Clouds 5000ft.
Becoming from till Wind variable 3kt. Visibility 10km or more. Scattered Clouds 5000ft.

Raw: TAF ETNW 191020Z 1911/2011 07007KT 9999 NSW BKN007 BECMG 1911/1913 09008KT 9999 NSW BKN040 BECMG 1915/1917 04003KT 9999 NSW SCT050 BECMG 1923/2001 VRB03KT 5000 BR SCT005 SCT050 BECMG 2007/2009 VRB03KT 9999 NSW SCT050 BY ETGL

Актуални сателитни и дъждовни снимки за Bordenau, Германия

  • Валежи:
  • <1 mm
  • 1-2 mm
  • 2-5 mm
  • >5 mm

Маркерът за локация е поставен върху Bordenau. [Още]

Сателитното изображение в реално време съчетава видимата светлина през деня с инфрачервеното лъчение през нощта. През нощта изображението не е тъмно, тъй като инфрачервеното лъчение може да открива температурни разлики. За съжаление ниските облаци и мъглата са трудни за разграничаване от температурите на земята и затова могат да бъдат почти невидими през нощта. Сателитните изображения на Meteosat за Европа се актуализират в реално време на всеки 5 минути. Изображенията GOES-16/GOES-17 (Северна и Южна Америка) и Химавари (Азия) се актуализират на всеки 10 минути.

Валежите се изчисляват на база информация от радари и сателити. Нощните прогнози за валежи от сателити са с по-ниска прецизност от дневните прогнози. Оранжевите кръстове маркират локациите, на които са засечени светкавици (над Европа).

Всички права запазени 2021 EUMETSAT / meteoblue. Данни за светкавици, предоставени от nowcast.

Радар за Bordenau

Маркерът за локация обозначава Bordenau. Анимацията показва Радара за валежи за последния час, както и прогноза за 2h. Възможно е незначителните превалявания да не бъдат засечени от радара. Интензивността на валежите е представена в цветна скала от светлосиньо до тъмнолилаво.
Copyright 2021 Deutscher Wetterdienst / meteoblue.

Настояща метеорологична обстановка и предупреждения

EUMETNET – MeteoAlarm

pictomap

Източник: DWD

Възможни са времеви забавяния между този уебсайт и www.meteoalarm.eu За най-актуалните данни за нивата на предупреждение, моля изполвайте www.meteoalarm.eu.